sensor_id;sensor_type;location;lat;lon;timestamp;temperature;humidity
909;DHT22;441;51.192;6.788;2022-11-14T00:00:23;20.00;86.10
909;DHT22;441;51.192;6.788;2022-11-14T00:02:50;20.00;86.20
909;DHT22;441;51.192;6.788;2022-11-14T00:05:17;20.00;86.20
909;DHT22;441;51.192;6.788;2022-11-14T00:07:44;19.90;86.00
909;DHT22;441;51.192;6.788;2022-11-14T00:10:13;19.90;86.10
909;DHT22;441;51.192;6.788;2022-11-14T00:12:40;19.90;86.10
909;DHT22;441;51.192;6.788;2022-11-14T00:15:08;19.90;86.10
909;DHT22;441;51.192;6.788;2022-11-14T00:17:36;19.90;86.20
909;DHT22;441;51.192;6.788;2022-11-14T00:20:05;19.90;86.20
909;DHT22;441;51.192;6.788;2022-11-14T00:22:32;19.90;86.30
909;DHT22;441;51.192;6.788;2022-11-14T00:24:59;19.90;86.30
909;DHT22;441;51.192;6.788;2022-11-14T00:27:27;19.90;86.30
909;DHT22;441;51.192;6.788;2022-11-14T00:29:54;19.90;86.20
909;DHT22;441;51.192;6.788;2022-11-14T00:32:21;19.80;86.30
909;DHT22;441;51.192;6.788;2022-11-14T00:34:48;19.80;86.30
909;DHT22;441;51.192;6.788;2022-11-14T00:37:15;19.80;86.30
909;DHT22;441;51.192;6.788;2022-11-14T00:39:42;19.80;86.30
909;DHT22;441;51.192;6.788;2022-11-14T00:42:09;19.80;86.30
909;DHT22;441;51.192;6.788;2022-11-14T00:44:37;19.80;86.40
909;DHT22;441;51.192;6.788;2022-11-14T00:47:04;19.80;86.30
909;DHT22;441;51.192;6.788;2022-11-14T00:49:31;19.80;86.40
909;DHT22;441;51.192;6.788;2022-11-14T00:51:58;19.80;86.40
909;DHT22;441;51.192;6.788;2022-11-14T00:54:25;19.80;86.20
909;DHT22;441;51.192;6.788;2022-11-14T00:56:52;19.80;86.40
909;DHT22;441;51.192;6.788;2022-11-14T00:59:18;19.80;86.50
909;DHT22;441;51.192;6.788;2022-11-14T01:01:47;19.70;87.10
909;DHT22;441;51.192;6.788;2022-11-14T01:04:14;19.80;86.30
909;DHT22;441;51.192;6.788;2022-11-14T01:06:41;19.70;86.20
909;DHT22;441;51.192;6.788;2022-11-14T01:09:08;19.70;86.10
909;DHT22;441;51.192;6.788;2022-11-14T01:11:36;19.70;86.10
909;DHT22;441;51.192;6.788;2022-11-14T01:14:05;19.70;86.10
909;DHT22;441;51.192;6.788;2022-11-14T01:16:32;19.70;86.10
909;DHT22;441;51.192;6.788;2022-11-14T01:19:01;19.70;86.10
909;DHT22;441;51.192;6.788;2022-11-14T01:21:29;19.70;86.10
909;DHT22;441;51.192;6.788;2022-11-14T01:23:56;19.60;86.00
909;DHT22;441;51.192;6.788;2022-11-14T01:26:23;19.60;85.90
909;DHT22;441;51.192;6.788;2022-11-14T01:28:49;19.60;85.80
909;DHT22;441;51.192;6.788;2022-11-14T01:31:19;19.60;85.80
909;DHT22;441;51.192;6.788;2022-11-14T01:33:48;19.60;85.90
909;DHT22;441;51.192;6.788;2022-11-14T01:36:17;19.60;85.90
909;DHT22;441;51.192;6.788;2022-11-14T01:38:44;19.60;85.80
909;DHT22;441;51.192;6.788;2022-11-14T01:41:13;19.60;85.70
909;DHT22;441;51.192;6.788;2022-11-14T01:43:41;19.60;85.80
909;DHT22;441;51.192;6.788;2022-11-14T01:46:11;19.60;85.80
909;DHT22;441;51.192;6.788;2022-11-14T01:48:41;19.60;85.70
909;DHT22;441;51.192;6.788;2022-11-14T01:51:19;19.60;85.80
909;DHT22;441;51.192;6.788;2022-11-14T01:53:49;19.50;85.70
909;DHT22;441;51.192;6.788;2022-11-14T01:56:20;19.50;85.60
909;DHT22;441;51.192;6.788;2022-11-14T01:58:51;19.50;85.60
909;DHT22;441;51.192;6.788;2022-11-14T02:01:19;19.50;85.70
909;DHT22;441;51.192;6.788;2022-11-14T02:03:48;19.50;85.70
909;DHT22;441;51.192;6.788;2022-11-14T02:06:21;19.50;85.70
909;DHT22;441;51.192;6.788;2022-11-14T02:08:50;19.50;85.70
909;DHT22;441;51.192;6.788;2022-11-14T02:11:17;19.50;85.60
909;DHT22;441;51.192;6.788;2022-11-14T02:13:44;19.50;85.60
909;DHT22;441;51.192;6.788;2022-11-14T02:16:12;19.50;85.60
909;DHT22;441;51.192;6.788;2022-11-14T02:18:39;19.50;85.50
909;DHT22;441;51.192;6.788;2022-11-14T02:21:07;19.50;85.40
909;DHT22;441;51.192;6.788;2022-11-14T02:23:34;19.50;85.40
909;DHT22;441;51.192;6.788;2022-11-14T02:26:01;19.50;85.30
909;DHT22;441;51.192;6.788;2022-11-14T02:28:28;19.40;85.30
909;DHT22;441;51.192;6.788;2022-11-14T02:30:55;19.40;85.20
909;DHT22;441;51.192;6.788;2022-11-14T02:33:22;19.40;85.60
909;DHT22;441;51.192;6.788;2022-11-14T02:35:48;19.40;85.70
909;DHT22;441;51.192;6.788;2022-11-14T02:38:17;19.40;85.80
909;DHT22;441;51.192;6.788;2022-11-14T02:40:43;19.40;85.70
909;DHT22;441;51.192;6.788;2022-11-14T02:43:10;19.30;85.70
909;DHT22;441;51.192;6.788;2022-11-14T02:45:38;19.40;85.80
909;DHT22;441;51.192;6.788;2022-11-14T02:48:05;19.30;85.60
909;DHT22;441;51.192;6.788;2022-11-14T02:50:32;19.30;85.60
909;DHT22;441;51.192;6.788;2022-11-14T02:52:59;19.30;85.60
909;DHT22;441;51.192;6.788;2022-11-14T02:55:28;19.30;85.60
909;DHT22;441;51.192;6.788;2022-11-14T02:57:55;19.30;85.60
909;DHT22;441;51.192;6.788;2022-11-14T03:00:22;19.30;85.50
909;DHT22;441;51.192;6.788;2022-11-14T03:02:48;19.30;85.50
909;DHT22;441;51.192;6.788;2022-11-14T03:05:15;19.30;85.50
909;DHT22;441;51.192;6.788;2022-11-14T03:07:42;19.30;85.30
909;DHT22;441;51.192;6.788;2022-11-14T03:10:09;19.30;85.30
909;DHT22;441;51.192;6.788;2022-11-14T03:12:40;19.30;85.30
909;DHT22;441;51.192;6.788;2022-11-14T03:15:08;19.30;85.30
909;DHT22;441;51.192;6.788;2022-11-14T03:17:35;19.30;85.20
909;DHT22;441;51.192;6.788;2022-11-14T03:20:02;19.20;85.10
909;DHT22;441;51.192;6.788;2022-11-14T03:22:29;19.20;85.00
909;DHT22;441;51.192;6.788;2022-11-14T03:24:56;19.20;84.90
909;DHT22;441;51.192;6.788;2022-11-14T03:27:22;19.20;85.00
909;DHT22;441;51.192;6.788;2022-11-14T03:29:51;19.20;85.00
909;DHT22;441;51.192;6.788;2022-11-14T03:32:18;19.20;85.00
909;DHT22;441;51.192;6.788;2022-11-14T03:34:45;19.20;85.00
909;DHT22;441;51.192;6.788;2022-11-14T03:37:12;19.20;85.00
909;DHT22;441;51.192;6.788;2022-11-14T03:39:39;19.20;85.00
909;DHT22;441;51.192;6.788;2022-11-14T03:42:06;19.20;85.00
909;DHT22;441;51.192;6.788;2022-11-14T03:44:34;19.20;84.90
909;DHT22;441;51.192;6.788;2022-11-14T03:47:02;19.20;84.80
909;DHT22;441;51.192;6.788;2022-11-14T03:49:29;19.20;84.90
909;DHT22;441;51.192;6.788;2022-11-14T03:51:56;19.10;84.70
909;DHT22;441;51.192;6.788;2022-11-14T03:54:23;19.10;84.70
909;DHT22;441;51.192;6.788;2022-11-14T03:56:50;19.10;84.70
909;DHT22;441;51.192;6.788;2022-11-14T03:59:17;19.10;84.70
909;DHT22;441;51.192;6.788;2022-11-14T04:01:44;19.10;85.40
909;DHT22;441;51.192;6.788;2022-11-14T04:04:13;19.10;84.60
909;DHT22;441;51.192;6.788;2022-11-14T04:06:40;19.10;84.50
909;DHT22;441;51.192;6.788;2022-11-14T04:09:06;19.10;84.50
909;DHT22;441;51.192;6.788;2022-11-14T04:11:33;19.10;84.40
909;DHT22;441;51.192;6.788;2022-11-14T04:14:00;19.10;84.40
909;DHT22;441;51.192;6.788;2022-11-14T04:16:27;19.10;84.40
909;DHT22;441;51.192;6.788;2022-11-14T04:18:54;19.00;84.30
909;DHT22;441;51.192;6.788;2022-11-14T04:21:23;19.10;85.20
909;DHT22;441;51.192;6.788;2022-11-14T04:23:50;19.00;84.30
909;DHT22;441;51.192;6.788;2022-11-14T04:26:17;19.00;84.40
909;DHT22;441;51.192;6.788;2022-11-14T04:28:44;19.00;84.40
909;DHT22;441;51.192;6.788;2022-11-14T04:31:11;19.00;84.40
909;DHT22;441;51.192;6.788;2022-11-14T04:33:38;19.00;84.30
909;DHT22;441;51.192;6.788;2022-11-14T04:36:05;19.00;84.40
909;DHT22;441;51.192;6.788;2022-11-14T04:38:34;19.00;84.30
909;DHT22;441;51.192;6.788;2022-11-14T04:41:01;19.00;84.30
909;DHT22;441;51.192;6.788;2022-11-14T04:43:28;19.00;84.30
909;DHT22;441;51.192;6.788;2022-11-14T04:45:54;19.00;84.10
909;DHT22;441;51.192;6.788;2022-11-14T04:48:21;19.00;84.10
909;DHT22;441;51.192;6.788;2022-11-14T04:50:48;18.90;83.90
909;DHT22;441;51.192;6.788;2022-11-14T04:53:15;19.00;83.80
909;DHT22;441;51.192;6.788;2022-11-14T04:55:44;19.00;83.80
909;DHT22;441;51.192;6.788;2022-11-14T04:58:11;19.00;83.70
909;DHT22;441;51.192;6.788;2022-11-14T05:00:41;19.00;85.30
909;DHT22;441;51.192;6.788;2022-11-14T05:03:09;19.10;84.60
909;DHT22;441;51.192;6.788;2022-11-14T05:05:36;19.10;83.90
909;DHT22;441;51.192;6.788;2022-11-14T05:08:04;19.10;83.80
909;DHT22;441;51.192;6.788;2022-11-14T05:10:32;19.10;83.80
909;DHT22;441;51.192;6.788;2022-11-14T05:13:01;19.20;83.90
909;DHT22;441;51.192;6.788;2022-11-14T05:15:28;19.20;83.80
909;DHT22;441;51.192;6.788;2022-11-14T05:17:56;19.20;83.80
909;DHT22;441;51.192;6.788;2022-11-14T05:20:23;19.20;83.70
909;DHT22;441;51.192;6.788;2022-11-14T05:22:52;19.30;83.70
909;DHT22;441;51.192;6.788;2022-11-14T05:25:19;19.30;84.50
909;DHT22;441;51.192;6.788;2022-11-14T05:27:46;19.40;84.80
909;DHT22;441;51.192;6.788;2022-11-14T05:30:15;19.40;84.90
909;DHT22;441;51.192;6.788;2022-11-14T05:32:42;19.40;84.70
909;DHT22;441;51.192;6.788;2022-11-14T05:35:09;19.50;84.40
909;DHT22;441;51.192;6.788;2022-11-14T05:37:36;19.50;84.50
909;DHT22;441;51.192;6.788;2022-11-14T05:40:04;19.50;84.50
909;DHT22;441;51.192;6.788;2022-11-14T05:42:32;19.50;84.50
909;DHT22;441;51.192;6.788;2022-11-14T05:44:58;19.60;84.10
909;DHT22;441;51.192;6.788;2022-11-14T05:47:27;19.60;83.90
909;DHT22;441;51.192;6.788;2022-11-14T05:49:54;19.70;83.70
909;DHT22;441;51.192;6.788;2022-11-14T05:52:20;19.70;83.50
909;DHT22;441;51.192;6.788;2022-11-14T05:54:47;19.70;83.30
909;DHT22;441;51.192;6.788;2022-11-14T05:57:15;19.80;83.30
909;DHT22;441;51.192;6.788;2022-11-14T05:59:42;19.70;83.00
909;DHT22;441;51.192;6.788;2022-11-14T06:02:09;19.80;82.80
909;DHT22;441;51.192;6.788;2022-11-14T06:04:37;19.80;82.80
909;DHT22;441;51.192;6.788;2022-11-14T06:07:04;19.80;82.60
909;DHT22;441;51.192;6.788;2022-11-14T06:09:31;19.90;83.40
909;DHT22;441;51.192;6.788;2022-11-14T06:11:58;19.90;82.40
909;DHT22;441;51.192;6.788;2022-11-14T06:14:25;19.90;82.20
909;DHT22;441;51.192;6.788;2022-11-14T06:16:52;19.90;82.00
909;DHT22;441;51.192;6.788;2022-11-14T06:19:19;20.00;82.20
909;DHT22;441;51.192;6.788;2022-11-14T06:21:48;20.10;83.50
909;DHT22;441;51.192;6.788;2022-11-14T06:24:15;20.30;83.30
909;DHT22;441;51.192;6.788;2022-11-14T06:26:42;20.50;82.80
909;DHT22;441;51.192;6.788;2022-11-14T06:29:09;20.60;82.30
909;DHT22;441;51.192;6.788;2022-11-14T06:31:36;20.60;81.80
909;DHT22;441;51.192;6.788;2022-11-14T06:34:04;20.70;81.40
909;DHT22;441;51.192;6.788;2022-11-14T06:36:31;20.80;81.10
909;DHT22;441;51.192;6.788;2022-11-14T06:38:59;20.90;80.60
909;DHT22;441;51.192;6.788;2022-11-14T06:41:26;20.90;80.30
909;DHT22;441;51.192;6.788;2022-11-14T06:43:53;20.90;79.80
909;DHT22;441;51.192;6.788;2022-11-14T06:46:21;21.00;79.50
909;DHT22;441;51.192;6.788;2022-11-14T06:48:49;21.00;79.10
909;DHT22;441;51.192;6.788;2022-11-14T06:51:17;21.10;78.90
909;DHT22;441;51.192;6.788;2022-11-14T06:53:44;21.10;78.60
909;DHT22;441;51.192;6.788;2022-11-14T06:56:14;21.20;78.50
909;DHT22;441;51.192;6.788;2022-11-14T06:58:43;21.30;78.30
909;DHT22;441;51.192;6.788;2022-11-14T07:01:12;21.30;77.90
909;DHT22;441;51.192;6.788;2022-11-14T07:03:39;21.40;77.50
909;DHT22;441;51.192;6.788;2022-11-14T07:06:08;21.40;77.00
909;DHT22;441;51.192;6.788;2022-11-14T07:08:36;21.50;76.70
909;DHT22;441;51.192;6.788;2022-11-14T07:11:04;21.50;76.30
909;DHT22;441;51.192;6.788;2022-11-14T07:13:33;21.50;76.00
909;DHT22;441;51.192;6.788;2022-11-14T07:16:02;21.50;75.60
909;DHT22;441;51.192;6.788;2022-11-14T07:18:30;21.60;75.40
909;DHT22;441;51.192;6.788;2022-11-14T07:20:58;21.60;75.10
909;DHT22;441;51.192;6.788;2022-11-14T07:23:25;21.60;74.80
909;DHT22;441;51.192;6.788;2022-11-14T07:25:52;21.70;74.70
909;DHT22;441;51.192;6.788;2022-11-14T07:28:19;21.70;74.40
909;DHT22;441;51.192;6.788;2022-11-14T07:30:47;21.70;74.10
909;DHT22;441;51.192;6.788;2022-11-14T07:33:14;21.70;74.10
909;DHT22;441;51.192;6.788;2022-11-14T07:35:41;21.60;72.90
909;DHT22;441;51.192;6.788;2022-11-14T07:38:08;21.40;72.30
909;DHT22;441;51.192;6.788;2022-11-14T07:40:35;21.30;72.60
909;DHT22;441;51.192;6.788;2022-11-14T07:43:02;21.30;73.10
909;DHT22;441;51.192;6.788;2022-11-14T07:45:30;21.30;73.00
909;DHT22;441;51.192;6.788;2022-11-14T07:47:59;21.40;73.30
909;DHT22;441;51.192;6.788;2022-11-14T07:50:28;21.40;73.50
909;DHT22;441;51.192;6.788;2022-11-14T07:52:55;21.40;73.90
909;DHT22;441;51.192;6.788;2022-11-14T07:55:23;21.50;74.20
909;DHT22;441;51.192;6.788;2022-11-14T07:57:57;21.50;74.20
909;DHT22;441;51.192;6.788;2022-11-14T08:00:24;21.50;76.00
909;DHT22;441;51.192;6.788;2022-11-14T08:02:51;21.60;76.70
909;DHT22;441;51.192;6.788;2022-11-14T08:05:19;21.70;75.30
909;DHT22;441;51.192;6.788;2022-11-14T08:07:49;21.80;73.70
909;DHT22;441;51.192;6.788;2022-11-14T08:10:16;21.80;73.00
909;DHT22;441;51.192;6.788;2022-11-14T08:12:44;21.90;77.40
909;DHT22;441;51.192;6.788;2022-11-14T08:15:12;22.00;76.30
909;DHT22;441;51.192;6.788;2022-11-14T08:17:39;22.20;74.30
909;DHT22;441;51.192;6.788;2022-11-14T08:20:09;22.20;72.80
909;DHT22;441;51.192;6.788;2022-11-14T08:22:38;22.10;70.80
909;DHT22;441;51.192;6.788;2022-11-14T08:25:05;22.10;70.00
909;DHT22;441;51.192;6.788;2022-11-14T08:27:32;22.10;69.60
909;DHT22;441;51.192;6.788;2022-11-14T08:29:59;22.20;70.40
909;DHT22;441;51.192;6.788;2022-11-14T08:32:26;22.30;69.50
909;DHT22;441;51.192;6.788;2022-11-14T08:34:53;22.50;67.60
909;DHT22;441;51.192;6.788;2022-11-14T08:37:21;22.60;66.50
909;DHT22;441;51.192;6.788;2022-11-14T08:39:49;22.70;65.90
909;DHT22;441;51.192;6.788;2022-11-14T08:42:16;22.70;65.10
909;DHT22;441;51.192;6.788;2022-11-14T09:08:20;22.30;67.50
909;DHT22;441;51.192;6.788;2022-11-14T09:10:48;22.20;69.50
909;DHT22;441;51.192;6.788;2022-11-14T09:13:16;22.20;69.40
909;DHT22;441;51.192;6.788;2022-11-14T09:15:44;22.20;70.40
909;DHT22;441;51.192;6.788;2022-11-14T09:18:11;22.20;69.00
909;DHT22;441;51.192;6.788;2022-11-14T09:20:39;22.30;69.10
909;DHT22;441;51.192;6.788;2022-11-14T09:23:08;22.30;68.70
909;DHT22;441;51.192;6.788;2022-11-14T09:25:37;22.30;66.90
909;DHT22;441;51.192;6.788;2022-11-14T09:28:05;22.20;66.40
909;DHT22;441;51.192;6.788;2022-11-14T09:30:33;22.10;66.20
909;DHT22;441;51.192;6.788;2022-11-14T09:33:01;22.10;66.10
909;DHT22;441;51.192;6.788;2022-11-14T09:35:28;22.10;65.80
909;DHT22;441;51.192;6.788;2022-11-14T09:38:00;22.10;65.80
909;DHT22;441;51.192;6.788;2022-11-14T09:40:27;22.10;66.10
909;DHT22;441;51.192;6.788;2022-11-14T09:43:12;22.10;66.50
909;DHT22;441;51.192;6.788;2022-11-14T09:45:45;22.00;65.60
909;DHT22;441;51.192;6.788;2022-11-14T09:48:18;22.00;65.60
909;DHT22;441;51.192;6.788;2022-11-14T09:50:52;22.00;65.40
909;DHT22;441;51.192;6.788;2022-11-14T09:53:25;22.00;67.30
909;DHT22;441;51.192;6.788;2022-11-14T09:55:57;22.00;73.10
909;DHT22;441;51.192;6.788;2022-11-14T09:58:26;22.00;72.20
909;DHT22;441;51.192;6.788;2022-11-14T10:00:57;22.00;71.60
909;DHT22;441;51.192;6.788;2022-11-14T10:03:34;22.00;71.20
909;DHT22;441;51.192;6.788;2022-11-14T10:06:19;22.00;70.60
909;DHT22;441;51.192;6.788;2022-11-14T10:08:58;22.00;70.10
909;DHT22;441;51.192;6.788;2022-11-14T10:11:32;22.10;70.00
909;DHT22;441;51.192;6.788;2022-11-14T10:14:27;22.10;69.80
909;DHT22;441;51.192;6.788;2022-11-14T10:17:04;22.10;69.70
909;DHT22;441;51.192;6.788;2022-11-14T10:19:39;22.10;68.90
909;DHT22;441;51.192;6.788;2022-11-14T10:22:18;22.20;69.40
909;DHT22;441;51.192;6.788;2022-11-14T10:25:02;22.20;69.10
909;DHT22;441;51.192;6.788;2022-11-14T10:27:37;22.20;68.80
909;DHT22;441;51.192;6.788;2022-11-14T10:30:11;22.30;68.70
909;DHT22;441;51.192;6.788;2022-11-14T10:32:49;22.30;68.60
909;DHT22;441;51.192;6.788;2022-11-14T10:35:20;22.30;68.40
909;DHT22;441;51.192;6.788;2022-11-14T10:37:54;22.40;68.30
909;DHT22;441;51.192;6.788;2022-11-14T10:40:25;22.40;68.00
909;DHT22;441;51.192;6.788;2022-11-14T10:42:56;22.50;67.60
909;DHT22;441;51.192;6.788;2022-11-14T10:45:31;22.50;67.40
909;DHT22;441;51.192;6.788;2022-11-14T10:48:06;22.50;67.60
909;DHT22;441;51.192;6.788;2022-11-14T10:50:41;22.50;67.30
909;DHT22;441;51.192;6.788;2022-11-14T10:53:17;22.50;67.10
909;DHT22;441;51.192;6.788;2022-11-14T10:55:49;22.50;67.10
909;DHT22;441;51.192;6.788;2022-11-14T10:58:19;22.50;66.90
909;DHT22;441;51.192;6.788;2022-11-14T11:00:47;22.50;66.90
909;DHT22;441;51.192;6.788;2022-11-14T11:03:14;22.50;66.80
909;DHT22;441;51.192;6.788;2022-11-14T11:05:48;22.60;67.10
909;DHT22;441;51.192;6.788;2022-11-14T11:08:20;22.60;66.50
909;DHT22;441;51.192;6.788;2022-11-14T11:11:11;22.60;66.20
909;DHT22;441;51.192;6.788;2022-11-14T11:13:58;22.60;66.70
909;DHT22;441;51.192;6.788;2022-11-14T11:16:28;22.60;65.90
909;DHT22;441;51.192;6.788;2022-11-14T11:19:13;22.60;65.90
909;DHT22;441;51.192;6.788;2022-11-14T11:21:47;22.70;65.80
909;DHT22;441;51.192;6.788;2022-11-14T11:24:29;22.70;65.60
909;DHT22;441;51.192;6.788;2022-11-14T11:27:13;22.70;65.80
909;DHT22;441;51.192;6.788;2022-11-14T11:29:40;22.70;65.60
909;DHT22;441;51.192;6.788;2022-11-14T11:32:08;22.70;65.60
909;DHT22;441;51.192;6.788;2022-11-14T11:34:36;22.70;65.70
909;DHT22;441;51.192;6.788;2022-11-14T11:37:12;22.70;66.10
909;DHT22;441;51.192;6.788;2022-11-14T11:39:46;22.60;65.50
909;DHT22;441;51.192;6.788;2022-11-14T11:42:18;22.60;65.70
909;DHT22;441;51.192;6.788;2022-11-14T11:44:48;22.70;66.00
909;DHT22;441;51.192;6.788;2022-11-14T11:47:20;22.60;65.70
909;DHT22;441;51.192;6.788;2022-11-14T11:49:49;22.60;65.80
909;DHT22;441;51.192;6.788;2022-11-14T11:52:22;22.60;65.70
909;DHT22;441;51.192;6.788;2022-11-14T11:54:57;22.60;66.00
909;DHT22;441;51.192;6.788;2022-11-14T11:57:29;22.60;65.70
909;DHT22;441;51.192;6.788;2022-11-14T12:00:03;22.60;65.90
909;DHT22;441;51.192;6.788;2022-11-14T12:02:32;22.60;66.10
909;DHT22;441;51.192;6.788;2022-11-14T12:05:02;22.60;66.00
909;DHT22;441;51.192;6.788;2022-11-14T12:07:35;22.60;66.20
909;DHT22;441;51.192;6.788;2022-11-14T12:10:10;22.60;66.00
909;DHT22;441;51.192;6.788;2022-11-14T12:15:45;22.50;66.50
909;DHT22;441;51.192;6.788;2022-11-14T12:18:38;22.50;66.60
909;DHT22;441;51.192;6.788;2022-11-14T12:21:11;22.50;67.00
909;DHT22;441;51.192;6.788;2022-11-14T12:24:07;22.50;67.00
909;DHT22;441;51.192;6.788;2022-11-14T12:26:53;22.50;67.20
909;DHT22;441;51.192;6.788;2022-11-14T12:29:38;22.40;67.00
909;DHT22;441;51.192;6.788;2022-11-14T12:32:11;22.50;67.20
909;DHT22;441;51.192;6.788;2022-11-14T12:34:42;22.40;67.10
909;DHT22;441;51.192;6.788;2022-11-14T12:37:15;22.40;67.10
909;DHT22;441;51.192;6.788;2022-11-14T12:39:54;22.40;67.10
909;DHT22;441;51.192;6.788;2022-11-14T12:42:22;22.50;67.10
909;DHT22;441;51.192;6.788;2022-11-14T12:44:49;22.50;67.10
909;DHT22;441;51.192;6.788;2022-11-14T12:47:20;22.50;67.00
909;DHT22;441;51.192;6.788;2022-11-14T12:53:38;22.40;67.20
909;DHT22;441;51.192;6.788;2022-11-14T13:07:50;22.10;68.50
909;DHT22;441;51.192;6.788;2022-11-14T13:10:27;22.10;68.80
909;DHT22;441;51.192;6.788;2022-11-14T13:13:02;22.10;69.10
909;DHT22;441;51.192;6.788;2022-11-14T13:15:50;22.00;68.90
909;DHT22;441;51.192;6.788;2022-11-14T13:18:35;22.00;69.20
909;DHT22;441;51.192;6.788;2022-11-14T13:21:22;22.00;69.40
909;DHT22;441;51.192;6.788;2022-11-14T13:24:07;22.10;69.60
909;DHT22;441;51.192;6.788;2022-11-14T13:26:44;22.00;69.60
909;DHT22;441;51.192;6.788;2022-11-14T13:35:51;22.00;70.20
909;DHT22;441;51.192;6.788;2022-11-14T13:41:51;22.00;70.30
909;DHT22;441;51.192;6.788;2022-11-14T13:44:47;22.00;70.40
909;DHT22;441;51.192;6.788;2022-11-14T13:50:12;22.00;70.70
909;DHT22;441;51.192;6.788;2022-11-14T13:52:41;22.10;70.80
909;DHT22;441;51.192;6.788;2022-11-14T13:55:18;22.10;71.50
909;DHT22;441;51.192;6.788;2022-11-14T13:57:57;22.10;70.80
909;DHT22;441;51.192;6.788;2022-11-14T14:00:30;22.10;70.70
909;DHT22;441;51.192;6.788;2022-11-14T14:03:18;22.10;70.70
909;DHT22;441;51.192;6.788;2022-11-14T14:06:02;22.10;70.70
909;DHT22;441;51.192;6.788;2022-11-14T14:08:49;22.10;70.80
909;DHT22;441;51.192;6.788;2022-11-14T14:14:27;22.10;70.90
909;DHT22;441;51.192;6.788;2022-11-14T14:17:04;22.10;71.80
909;DHT22;441;51.192;6.788;2022-11-14T14:19:42;22.20;72.10
909;DHT22;441;51.192;6.788;2022-11-14T14:22:17;22.20;71.10
909;DHT22;441;51.192;6.788;2022-11-14T14:24:53;22.20;70.60
909;DHT22;441;51.192;6.788;2022-11-14T14:27:27;22.30;71.20
909;DHT22;441;51.192;6.788;2022-11-14T14:30:03;22.40;70.30
909;DHT22;441;51.192;6.788;2022-11-14T14:32:33;22.50;70.50
909;DHT22;441;51.192;6.788;2022-11-14T14:41:45;22.60;69.10
909;DHT22;441;51.192;6.788;2022-11-14T14:44:20;22.60;68.20
909;DHT22;441;51.192;6.788;2022-11-14T14:46:49;22.70;68.00
909;DHT22;441;51.192;6.788;2022-11-14T14:49:20;22.70;67.90
909;DHT22;441;51.192;6.788;2022-11-14T14:51:48;22.70;67.20
909;DHT22;441;51.192;6.788;2022-11-14T15:01:01;22.70;67.10
909;DHT22;441;51.192;6.788;2022-11-14T15:03:31;22.70;67.90
909;DHT22;441;51.192;6.788;2022-11-14T15:06:02;22.80;66.70
909;DHT22;441;51.192;6.788;2022-11-14T15:08:31;22.70;66.00
909;DHT22;441;51.192;6.788;2022-11-14T15:11:01;22.70;65.80
909;DHT22;441;51.192;6.788;2022-11-14T15:13:29;22.70;65.10
909;DHT22;441;51.192;6.788;2022-11-14T15:15:58;22.70;64.60
909;DHT22;441;51.192;6.788;2022-11-14T15:18:30;22.70;64.70
909;DHT22;441;51.192;6.788;2022-11-14T15:21:11;22.70;64.50
909;DHT22;441;51.192;6.788;2022-11-14T15:23:40;22.70;64.40
909;DHT22;441;51.192;6.788;2022-11-14T15:26:13;22.70;64.10
909;DHT22;441;51.192;6.788;2022-11-14T15:28:41;22.70;63.90
909;DHT22;441;51.192;6.788;2022-11-14T15:31:17;22.70;63.10
909;DHT22;441;51.192;6.788;2022-11-14T15:34:03;22.70;63.50
909;DHT22;441;51.192;6.788;2022-11-14T15:36:31;22.60;63.10
909;DHT22;441;51.192;6.788;2022-11-14T15:39:00;22.60;63.30
909;DHT22;441;51.192;6.788;2022-11-14T15:41:28;22.50;63.50
909;DHT22;441;51.192;6.788;2022-11-14T15:43:56;22.50;63.70
909;DHT22;441;51.192;6.788;2022-11-14T15:46:46;22.30;63.40
909;DHT22;441;51.192;6.788;2022-11-14T15:49:20;22.20;64.70
909;DHT22;441;51.192;6.788;2022-11-14T15:51:50;22.20;64.50
909;DHT22;441;51.192;6.788;2022-11-14T15:54:24;22.10;64.80
909;DHT22;441;51.192;6.788;2022-11-14T15:56:52;22.10;65.30
909;DHT22;441;51.192;6.788;2022-11-14T15:59:19;22.10;65.80
909;DHT22;441;51.192;6.788;2022-11-14T16:01:49;22.00;65.90
909;DHT22;441;51.192;6.788;2022-11-14T16:04:21;21.90;65.90
909;DHT22;441;51.192;6.788;2022-11-14T16:06:48;21.90;66.30
909;DHT22;441;51.192;6.788;2022-11-14T16:09:16;21.80;66.50
909;DHT22;441;51.192;6.788;2022-11-14T16:11:44;21.90;66.80
909;DHT22;441;51.192;6.788;2022-11-14T16:14:11;21.90;66.90
909;DHT22;441;51.192;6.788;2022-11-14T16:16:38;21.90;66.90
909;DHT22;441;51.192;6.788;2022-11-14T16:19:05;21.90;66.70
909;DHT22;441;51.192;6.788;2022-11-14T16:21:36;22.00;66.50
909;DHT22;441;51.192;6.788;2022-11-14T16:24:04;22.10;67.60
909;DHT22;441;51.192;6.788;2022-11-14T16:26:31;22.10;66.30
909;DHT22;441;51.192;6.788;2022-11-14T16:28:58;22.10;66.60
909;DHT22;441;51.192;6.788;2022-11-14T16:31:25;22.10;66.60
909;DHT22;441;51.192;6.788;2022-11-14T16:33:52;22.20;66.50
909;DHT22;441;51.192;6.788;2022-11-14T16:36:21;22.20;66.50
909;DHT22;441;51.192;6.788;2022-11-14T16:38:50;22.20;66.50
909;DHT22;441;51.192;6.788;2022-11-14T16:41:18;22.20;65.80
909;DHT22;441;51.192;6.788;2022-11-14T16:43:45;22.30;67.20
909;DHT22;441;51.192;6.788;2022-11-14T16:46:12;22.30;66.00
909;DHT22;441;51.192;6.788;2022-11-14T16:48:40;22.40;65.80
909;DHT22;441;51.192;6.788;2022-11-14T16:51:07;22.50;65.10
909;DHT22;441;51.192;6.788;2022-11-14T16:53:34;22.60;66.50
909;DHT22;441;51.192;6.788;2022-11-14T16:56:03;22.70;66.70
909;DHT22;441;51.192;6.788;2022-11-14T16:58:30;22.80;65.40
909;DHT22;441;51.192;6.788;2022-11-14T17:00:58;22.90;65.40
909;DHT22;441;51.192;6.788;2022-11-14T17:03:25;23.00;66.00
909;DHT22;441;51.192;6.788;2022-11-14T17:05:51;23.20;65.10
909;DHT22;441;51.192;6.788;2022-11-14T17:08:18;23.30;64.90
909;DHT22;441;51.192;6.788;2022-11-14T17:10:46;23.30;63.50
909;DHT22;441;51.192;6.788;2022-11-14T17:13:14;23.10;62.50
909;DHT22;441;51.192;6.788;2022-11-14T17:15:41;23.00;62.70
909;DHT22;441;51.192;6.788;2022-11-14T17:18:09;23.00;62.80
909;DHT22;441;51.192;6.788;2022-11-14T17:20:37;23.00;62.90
909;DHT22;441;51.192;6.788;2022-11-14T17:23:04;23.00;63.20
909;DHT22;441;51.192;6.788;2022-11-14T17:25:30;23.00;63.30
909;DHT22;441;51.192;6.788;2022-11-14T17:27:57;23.00;63.50
909;DHT22;441;51.192;6.788;2022-11-14T17:30:26;23.10;63.00
909;DHT22;441;51.192;6.788;2022-11-14T17:32:53;23.10;62.80
909;DHT22;441;51.192;6.788;2022-11-14T17:35:21;23.10;62.70
909;DHT22;441;51.192;6.788;2022-11-14T17:37:48;23.10;62.50
909;DHT22;441;51.192;6.788;2022-11-14T17:40:15;23.20;62.50
909;DHT22;441;51.192;6.788;2022-11-14T17:42:42;23.20;62.50
909;DHT22;441;51.192;6.788;2022-11-14T17:45:10;23.20;62.40
909;DHT22;441;51.192;6.788;2022-11-14T17:47:38;23.20;62.60
909;DHT22;441;51.192;6.788;2022-11-14T17:50:05;23.30;62.50
909;DHT22;441;51.192;6.788;2022-11-14T17:52:32;23.30;62.30
909;DHT22;441;51.192;6.788;2022-11-14T17:54:59;23.30;62.20
909;DHT22;441;51.192;6.788;2022-11-14T17:57:26;23.30;62.10
909;DHT22;441;51.192;6.788;2022-11-14T17:59:53;23.30;62.20
909;DHT22;441;51.192;6.788;2022-11-14T18:02:19;23.30;62.40